Time;durP1;ratioP1;P1;durP2;ratioP2;P2;SDS_P1;SDS_P2;PMS_P1;PMS_P2;Temp;Humidity;BMP_temperature;BMP_pressure;BME280_temperature;BME280_humidity;BME280_pressure;Samples;Min_cycle;Max_cycle;Signal;HPM_P1;HPM_P2
2021/08/26 00:07:01;;;;;;;4.47;1.60;;;25.00;55.10;;;;;;4973782;28;87634;-15
2021/08/26 00:09:27;;;;;;;2.85;1.92;;;25.00;55.10;;;;;;4973992;28;88531;-15
2021/08/26 00:11:54;;;;;;;2.45;1.58;;;25.00;55.10;;;;;;4973945;28;87557;-16
2021/08/26 00:14:20;;;;;;;1.65;1.50;;;25.00;55.20;;;;;;4971308;28;87624;-15
2021/08/26 00:16:45;;;;;;;2.38;1.67;;;25.00;55.20;;;;;;4972987;28;87377;-15
2021/08/26 00:19:12;;;;;;;2.25;1.35;;;25.00;55.20;;;;;;4972897;28;90544;-15
2021/08/26 00:21:39;;;;;;;2.58;1.77;;;25.00;55.20;;;;;;4973858;28;88826;-16
2021/08/26 00:24:06;;;;;;;2.45;1.75;;;25.00;55.20;;;;;;4974585;28;87619;-14
2021/08/26 00:26:32;;;;;;;2.15;1.55;;;25.00;55.20;;;;;;4973291;28;88188;-15
2021/08/26 00:29:00;;;;;;;2.58;1.98;;;24.90;55.20;;;;;;4973285;28;88295;-14
2021/08/26 00:31:26;;;;;;;2.33;1.67;;;24.90;55.20;;;;;;4973080;28;88075;-15
2021/08/26 00:33:51;;;;;;;4.25;2.03;;;25.00;55.30;;;;;;4973393;28;87380;-15
2021/08/26 00:36:18;;;;;;;2.20;1.45;;;25.00;55.30;;;;;;4973552;28;87281;-15
2021/08/26 00:38:45;;;;;;;2.88;1.60;;;25.00;55.30;;;;;;4972842;28;89318;-15
2021/08/26 00:41:12;;;;;;;2.65;1.95;;;24.90;55.30;;;;;;4973028;28;87846;-16
2021/08/26 00:43:38;;;;;;;2.17;1.73;;;24.90;55.30;;;;;;4971200;28;88103;-15
2021/08/26 00:46:04;;;;;;;2.10;1.70;;;25.00;55.40;;;;;;4972558;28;88344;-15
2021/08/26 00:48:29;;;;;;;2.40;1.80;;;24.90;55.40;;;;;;4973289;28;88313;-14
2021/08/26 00:50:57;;;;;;;3.35;1.83;;;24.90;55.40;;;;;;4973097;28;87939;-16
2021/08/26 00:53:23;;;;;;;2.08;1.63;;;24.90;55.50;;;;;;4973085;28;88053;-15
2021/08/26 00:55:49;;;;;;;2.85;1.92;;;24.90;55.50;;;;;;4972923;28;88012;-15
2021/08/26 00:58:15;;;;;;;2.75;1.83;;;24.90;55.50;;;;;;4972861;28;88756;-16
2021/08/26 01:00:50;;;;;;;1.98;1.50;;;24.90;55.50;;;;;;4972833;28;88282;-15
2021/08/26 01:03:22;;;;;;;2.30;1.73;;;24.90;55.50;;;;;;4972581;28;88614;-17
2021/08/26 01:05:54;;;;;;;2.75;1.92;;;24.90;55.60;;;;;;4971752;28;87134;-16
2021/08/26 01:08:34;;;;;;;2.35;1.75;;;24.90;55.70;;;;;;4971836;28;89295;-14
2021/08/26 01:11:03;;;;;;;2.05;1.50;;;24.90;55.60;;;;;;4972298;28;88854;-15
2021/08/26 01:13:37;;;;;;;2.97;1.83;;;24.90;55.60;;;;;;4973415;28;87714;-16
2021/08/26 01:16:10;;;;;;;2.38;1.38;;;24.90;55.60;;;;;;4972025;28;89433;-15
2021/08/26 01:18:42;;;;;;;1.73;1.40;;;24.90;55.70;;;;;;4972103;28;87759;-15
2021/08/26 01:21:09;;;;;;;2.30;1.58;;;24.90;55.70;;;;;;4973356;28;87893;-15
2021/08/26 01:23:46;;;;;;;2.08;1.80;;;24.90;55.70;;;;;;4973335;28;87180;-14
2021/08/26 01:26:21;;;;;;;1.80;1.52;;;24.90;55.70;;;;;;4972502;28;88344;-15
2021/08/26 01:28:50;;;;;;;2.40;1.50;;;24.90;55.70;;;;;;4971965;28;89761;-15
2021/08/26 01:31:17;;;;;;;2.33;1.80;;;24.90;55.80;;;;;;4972431;28;88112;-15
2021/08/26 01:33:45;;;;;;;2.83;1.75;;;24.90;55.70;;;;;;4971758;28;88937;-15
2021/08/26 01:36:11;;;;;;;2.03;1.40;;;24.90;55.80;;;;;;4972192;28;88120;-16
2021/08/26 01:38:37;;;;;;;2.55;1.80;;;24.80;55.80;;;;;;4972068;28;89296;-16
2021/08/26 01:41:03;;;;;;;2.05;1.40;;;24.90;55.80;;;;;;4971194;28;91218;-14
2021/08/26 01:43:31;;;;;;;2.08;1.73;;;24.90;55.90;;;;;;4972472;28;87173;-14
2021/08/26 01:45:57;;;;;;;2.63;1.77;;;24.90;55.90;;;;;;4971386;28;88386;-15
2021/08/26 01:48:22;;;;;;;1.88;1.60;;;24.80;55.90;;;;;;4971585;28;88214;-15
2021/08/26 01:50:49;;;;;;;2.08;1.33;;;24.80;55.90;;;;;;4971820;28;88016;-15
2021/08/26 01:53:16;;;;;;;2.70;1.67;;;24.80;56.00;;;;;;4971611;28;87851;-14
2021/08/26 01:55:42;;;;;;;1.98;1.63;;;24.90;56.10;;;;;;4972459;28;87070;-15
2021/08/26 01:58:13;;;;;;;1.88;1.40;;;24.80;55.90;;;;;;4971513;28;88811;-15
2021/08/26 02:00:39;;;;;;;2.15;1.50;;;24.80;56.00;;;;;;4971454;28;89498;-15
2021/08/26 02:03:04;;;;;;;1.85;1.38;;;24.90;56.00;;;;;;4972584;28;87365;-15
2021/08/26 02:05:30;;;;;;;2.33;1.85;;;24.80;56.00;;;;;;4971998;28;87801;-15
2021/08/26 02:07:59;;;;;;;1.80;1.65;;;24.80;56.00;;;;;;4971411;28;87958;-16
2021/08/26 02:10:24;;;;;;;1.88;1.58;;;24.80;56.10;;;;;;4971631;28;88453;-15
2021/08/26 02:12:51;;;;;;;2.72;1.73;;;24.80;56.10;;;;;;4972994;28;88292;-15
2021/08/26 02:15:17;;;;;;;2.67;1.92;;;24.80;56.10;;;;;;4972553;28;88101;-15
2021/08/26 02:17:42;;;;;;;2.65;1.65;;;24.80;56.10;;;;;;4971291;28;88289;-15
2021/08/26 02:20:09;;;;;;;1.83;1.60;;;24.80;56.10;;;;;;4972273;28;87968;-15
2021/08/26 02:22:35;;;;;;;1.92;1.50;;;24.80;56.20;;;;;;4971009;28;88085;-15
2021/08/26 02:25:02;;;;;;;2.17;1.67;;;24.80;56.20;;;;;;4970459;28;89868;-16
2021/08/26 02:27:28;;;;;;;2.88;1.73;;;24.80;56.20;;;;;;4971741;28;88205;-17
2021/08/26 02:29:54;;;;;;;1.63;1.15;;;24.80;56.30;;;;;;4971988;28;88292;-15
2021/08/26 02:32:19;;;;;;;2.22;1.65;;;24.80;56.30;;;;;;4969036;28;87409;-15
2021/08/26 02:34:45;;;;;;;2.20;1.58;;;24.80;56.80;;;;;;4970786;28;87729;-14
2021/08/26 02:37:10;;;;;;;3.15;1.60;;;24.80;56.30;;;;;;4971426;28;87984;-15
2021/08/26 02:39:36;;;;;;;2.15;1.67;;;24.80;56.30;;;;;;4971760;28;89258;-15
2021/08/26 02:42:03;;;;;;;2.60;1.70;;;24.80;56.30;;;;;;4971459;28;87211;-15
2021/08/26 02:44:32;;;;;;;1.88;1.40;;;24.80;56.30;;;;;;4970145;28;88506;-14
2021/08/26 02:46:58;;;;;;;2.03;1.60;;;24.80;56.40;;;;;;4970451;28;88666;-14
2021/08/26 02:49:24;;;;;;;2.10;1.77;;;24.80;56.40;;;;;;4970721;28;89417;-15
2021/08/26 02:51:49;;;;;;;2.20;1.52;;;24.80;56.40;;;;;;4971107;28;87012;-25
2021/08/26 02:54:15;;;;;;;1.63;1.38;;;24.80;56.50;;;;;;4970513;28;88563;-17
2021/08/26 02:56:41;;;;;;;1.67;1.50;;;24.80;56.50;;;;;;4969731;28;91114;-15
2021/08/26 02:59:07;;;;;;;1.73;1.40;;;24.70;56.50;;;;;;4970657;28;89004;-15
2021/08/26 03:01:33;;;;;;;1.60;1.50;;;24.80;56.60;;;;;;4971078;28;88171;-15
2021/08/26 03:03:58;;;;;;;2.35;1.70;;;24.80;56.60;;;;;;4970927;28;86996;-15
2021/08/26 03:06:24;;;;;;;1.30;1.20;;;24.80;56.60;;;;;;4970784;28;88255;-14
2021/08/26 03:08:49;;;;;;;1.42;1.33;;;24.80;56.60;;;;;;4971432;28;88143;-16
2021/08/26 03:11:15;;;;;;;2.75;1.88;;;24.80;56.60;;;;;;4970997;28;88342;-17
2021/08/26 03:13:40;;;;;;;2.60;1.33;;;24.80;56.60;;;;;;4971165;28;87611;-16
2021/08/26 03:16:07;;;;;;;1.58;1.45;;;24.70;56.60;;;;;;4971457;28;87834;-15
2021/08/26 03:18:33;;;;;;;2.33;1.90;;;24.80;56.60;;;;;;4970714;28;89172;-15
2021/08/26 03:20:59;;;;;;;1.77;1.30;;;24.70;56.60;;;;;;4969581;28;87770;-14
2021/08/26 03:23:24;;;;;;;2.22;1.45;;;24.70;56.50;;;;;;4970882;28;87387;-15
2021/08/26 03:25:51;;;;;;;1.75;1.63;;;24.70;56.50;;;;;;4971065;28;88329;-16
2021/08/26 03:28:18;;;;;;;1.45;1.30;;;24.80;56.60;;;;;;4971307;28;87172;-15
2021/08/26 03:30:44;;;;;;;2.10;1.38;;;24.70;56.50;;;;;;4971348;28;87663;-14
2021/08/26 03:33:10;;;;;;;2.00;1.58;;;24.70;56.50;;;;;;4970171;28;88231;-16
2021/08/26 03:35:35;;;;;;;1.98;1.60;;;24.70;56.50;;;;;;4969134;28;89047;-15
2021/08/26 03:38:02;;;;;;;2.17;1.52;;;24.70;56.50;;;;;;4970387;28;88143;-16
2021/08/26 03:40:28;;;;;;;1.90;1.70;;;24.70;56.60;;;;;;4968782;28;88610;-15
2021/08/26 03:42:54;;;;;;;1.63;1.50;;;24.70;56.60;;;;;;4970003;28;88304;-15
2021/08/26 03:45:19;;;;;;;1.70;1.17;;;24.70;56.60;;;;;;4969128;28;89334;-15
2021/08/26 03:47:45;;;;;;;1.77;1.50;;;24.60;56.60;;;;;;4970846;28;88160;-15
2021/08/26 03:50:11;;;;;;;1.52;1.42;;;24.70;56.60;;;;;;4971253;28;87189;-15
2021/08/26 03:52:37;;;;;;;1.95;1.75;;;24.70;56.60;;;;;;4972387;28;86887;-15
2021/08/26 03:55:03;;;;;;;1.67;1.20;;;24.70;56.60;;;;;;4971329;28;88037;-16
2021/08/26 03:57:29;;;;;;;1.65;1.42;;;24.70;56.70;;;;;;4970452;28;89690;-16
2021/08/26 03:59:54;;;;;;;1.80;1.55;;;24.70;56.70;;;;;;4970409;28;88758;-15
2021/08/26 04:02:22;;;;;;;2.63;1.60;;;24.70;56.70;;;;;;4970781;28;88100;-15
2021/08/26 04:04:48;;;;;;;2.00;1.55;;;24.70;56.70;;;;;;4969623;28;89412;-16
2021/08/26 04:07:15;;;;;;;2.47;1.30;;;24.70;56.70;;;;;;4971157;28;88583;-15
2021/08/26 04:09:41;;;;;;;1.63;1.50;;;24.70;56.70;;;;;;4970832;28;88312;-17
2021/08/26 04:12:06;;;;;;;2.17;1.63;;;24.70;56.80;;;;;;4971364;28;87560;-15
2021/08/26 04:14:32;;;;;;;1.92;1.50;;;24.60;56.70;;;;;;4971847;28;88155;-16
2021/08/26 04:16:58;;;;;;;1.52;1.40;;;24.60;56.90;;;;;;4971204;28;87453;-15
2021/08/26 04:19:23;;;;;;;1.45;1.33;;;24.70;56.90;;;;;;4970975;28;87118;-15
2021/08/26 04:21:49;;;;;;;2.17;1.58;;;24.60;56.70;;;;;;4970608;28;87163;-15
2021/08/26 04:24:14;;;;;;;1.45;1.15;;;24.60;56.80;;;;;;4969779;28;89084;-15
2021/08/26 04:26:40;;;;;;;2.00;1.58;;;24.70;56.90;;;;;;4970069;28;87999;-15
2021/08/26 04:29:05;;;;;;;2.67;1.65;;;24.70;56.90;;;;;;4970061;28;88338;-14
2021/08/26 04:31:31;;;;;;;1.88;1.30;;;24.70;56.90;;;;;;4970273;28;88374;-15
2021/08/26 04:33:57;;;;;;;1.50;1.40;;;24.70;56.90;;;;;;4970377;28;88038;-15
2021/08/26 04:36:22;;;;;;;2.22;1.60;;;24.60;56.90;;;;;;4970064;28;87814;-14
2021/08/26 04:38:48;;;;;;;1.52;1.33;;;24.60;56.90;;;;;;4969133;28;87319;-15
2021/08/26 04:41:13;;;;;;;1.20;1.10;;;24.60;56.90;;;;;;4972303;28;86790;-15
2021/08/26 04:43:39;;;;;;;2.22;1.50;;;24.60;56.90;;;;;;4971837;28;90628;-15
2021/08/26 04:46:05;;;;;;;2.08;1.40;;;24.60;57.00;;;;;;4972816;28;88324;-15
2021/08/26 04:48:30;;;;;;;1.45;1.27;;;24.60;57.10;;;;;;4973531;28;89041;-15
2021/08/26 04:50:56;;;;;;;1.90;1.50;;;24.60;57.30;;;;;;4973384;28;87181;-15
2021/08/26 04:53:22;;;;;;;1.77;1.58;;;24.60;57.40;;;;;;4973450;28;88369;-14
2021/08/26 04:55:47;;;;;;;2.08;1.58;;;24.60;57.30;;;;;;4972737;28;88257;-14
2021/08/26 04:58:13;;;;;;;2.17;1.67;;;24.60;57.40;;;;;;4972282;28;88156;-16
2021/08/26 05:00:38;;;;;;;1.52;1.40;;;24.60;57.40;;;;;;4972399;28;87990;-15
2021/08/26 05:03:05;;;;;;;1.42;1.20;;;24.60;57.50;;;;;;4973210;28;87964;-15
2021/08/26 05:05:30;;;;;;;1.25;1.15;;;24.60;57.50;;;;;;4973433;28;87894;-15
2021/08/26 05:07:56;;;;;;;1.80;1.50;;;24.60;57.50;;;;;;4972774;28;87409;-15
2021/08/26 05:10:22;;;;;;;1.95;1.75;;;24.60;57.50;;;;;;4971955;28;87654;-14
2021/08/26 05:12:47;;;;;;;1.67;1.58;;;24.60;57.50;;;;;;4969322;28;91565;-15
2021/08/26 05:15:13;;;;;;;1.50;1.35;;;24.60;57.50;;;;;;4971923;28;88887;-27
2021/08/26 05:17:38;;;;;;;1.77;1.30;;;24.60;57.60;;;;;;4971945;28;87437;-30
2021/08/26 05:20:05;;;;;;;1.90;1.70;;;24.60;57.60;;;;;;4970870;28;90561;-17
2021/08/26 05:22:30;;;;;;;1.60;1.40;;;24.60;57.60;;;;;;4972137;28;88435;-15
2021/08/26 05:24:56;;;;;;;1.77;1.55;;;24.60;57.60;;;;;;4972648;28;88307;-15
2021/08/26 05:27:21;;;;;;;1.88;1.58;;;24.60;57.60;;;;;;4973229;28;88307;-16
2021/08/26 05:29:47;;;;;;;1.67;1.58;;;24.60;57.60;;;;;;4971394;28;87336;-15
2021/08/26 05:32:12;;;;;;;3.17;1.50;;;24.60;57.60;;;;;;4972856;28;87686;-15
2021/08/26 05:34:38;;;;;;;3.22;1.75;;;24.60;57.40;;;;;;4972560;28;88978;-15
2021/08/26 05:37:04;;;;;;;11.48;3.50;;;24.60;57.40;;;;;;4972500;28;88630;-15
2021/08/26 05:39:29;;;;;;;10.93;3.80;;;24.60;57.40;;;;;;4972148;28;87909;-14
2021/08/26 05:41:56;;;;;;;23.13;5.40;;;24.50;57.10;;;;;;4971609;28;88273;-15
2021/08/26 05:44:21;;;;;;;25.80;5.78;;;24.50;56.90;;;;;;4972199;28;87877;-15
2021/08/26 05:46:47;;;;;;;16.77;4.25;;;24.50;56.40;;;;;;4971830;28;87847;-16
2021/08/26 05:49:13;;;;;;;13.50;4.57;;;24.50;56.10;;;;;;4970663;28;88033;-18
2021/08/26 05:51:38;;;;;;;18.67;4.20;;;24.50;56.20;;;;;;4970634;28;88410;-15
2021/08/26 05:54:04;;;;;;;15.40;3.88;;;24.50;56.20;;;;;;4970903;28;87912;-16
2021/08/26 05:56:30;;;;;;;12.95;4.43;;;24.50;56.40;;;;;;4971809;28;87481;-15
2021/08/26 05:58:56;;;;;;;11.25;3.70;;;24.50;56.30;;;;;;4972274;28;87153;-15
2021/08/26 06:01:27;;;;;;;44.92;5.00;;;24.50;56.70;;;;;;4970915;28;88562;-15
2021/08/26 06:03:52;;;;;;;17.80;5.10;;;24.50;56.90;;;;;;4968118;28;88092;-15
2021/08/26 06:06:18;;;;;;;13.20;4.60;;;24.50;57.00;;;;;;4970384;28;87117;-15
2021/08/26 06:08:43;;;;;;;12.88;4.50;;;24.50;57.00;;;;;;4969905;28;87726;-17
2021/08/26 06:11:09;;;;;;;17.73;4.57;;;24.50;57.20;;;;;;4944353;28;88647;-17
2021/08/26 06:13:38;;;;;;;17.60;5.30;;;24.50;57.30;;;;;;4969809;28;87948;-19
2021/08/26 06:16:04;;;;;;;16.75;4.78;;;24.50;57.40;;;;;;4969940;28;87892;-20
2021/08/26 06:18:30;;;;;;;16.83;4.30;;;24.60;57.90;;;;;;4969512;28;87278;-17
2021/08/26 06:20:56;;;;;;;17.48;4.97;;;24.60;58.00;;;;;;4970960;28;88404;-17
2021/08/26 06:23:22;;;;;;;16.48;4.97;;;24.60;57.80;;;;;;4970454;28;87894;-14
2021/08/26 06:25:48;;;;;;;19.90;5.50;;;24.60;58.10;;;;;;4969423;28;88641;-18
2021/08/26 06:28:13;;;;;;;13.18;4.97;;;24.60;58.10;;;;;;4986474;28;88247;-18
2021/08/26 06:30:39;;;;;;;21.52;4.65;;;24.60;58.00;;;;;;4971662;28;88197;-17
2021/08/26 06:33:05;;;;;;;18.20;4.45;;;24.60;58.00;;;;;;4969105;28;88134;-17
2021/08/26 06:35:32;;;;;;;20.52;4.90;;;24.60;58.00;;;;;;4969560;28;88286;-17
2021/08/26 06:37:57;;;;;;;16.00;4.68;;;24.60;57.90;;;;;;4970701;28;88278;-18
2021/08/26 06:40:23;;;;;;;21.27;4.35;;;24.60;58.00;;;;;;4967845;28;89113;-16
2021/08/26 06:42:49;;;;;;;20.42;5.32;;;24.60;58.20;;;;;;4969915;28;89638;-17
2021/08/26 06:45:15;;;;;;;15.57;4.82;;;24.70;58.20;;;;;;4970075;28;87709;-17
2021/08/26 06:47:41;;;;;;;17.55;4.75;;;24.70;58.10;;;;;;4968781;28;87713;-16
2021/08/26 06:50:07;;;;;;;21.95;4.82;;;24.70;57.90;;;;;;4969156;28;89399;-17
2021/08/26 06:52:34;;;;;;;18.00;4.88;;;24.80;57.90;;;;;;4970628;28;88319;-17
2021/08/26 06:54:59;;;;;;;17.52;4.35;;;24.80;57.90;;;;;;4969930;28;88212;-17
2021/08/26 06:57:27;;;;;;;18.02;4.88;;;24.90;58.00;;;;;;4970637;28;87848;-17
2021/08/26 06:59:54;;;;;;;17.23;4.75;;;24.90;57.70;;;;;;4969952;28;88041;-17
2021/08/26 07:02:20;;;;;;;22.92;5.00;;;25.00;57.50;;;;;;4969992;28;87947;-17
2021/08/26 07:04:45;;;;;;;16.67;4.32;;;25.10;57.00;;;;;;4967518;28;88384;-18
2021/08/26 07:07:11;;;;;;;16.38;4.30;;;25.10;56.70;;;;;;4969933;28;87351;-18
2021/08/26 07:09:37;;;;;;;12.43;3.95;;;25.10;56.30;;;;;;4967443;28;91139;-18
2021/08/26 07:12:03;;;;;;;20.50;4.32;;;25.20;56.20;;;;;;4969841;28;88010;-18
2021/08/26 07:14:28;;;;;;;18.27;4.53;;;25.30;56.10;;;;;;4968767;28;88543;-17
2021/08/26 07:16:54;;;;;;;15.00;3.97;;;25.30;56.10;;;;;;4970099;28;87552;-17
2021/08/26 07:19:20;;;;;;;19.30;4.35;;;25.30;55.90;;;;;;4970234;28;88162;-17
2021/08/26 07:21:47;;;;;;;33.58;10.75;;;25.30;55.70;;;;;;4969731;28;87789;-17
2021/08/26 07:24:13;;;;;;;49.80;17.25;;;25.30;55.70;;;;;;4969422;28;88098;-18
2021/08/26 07:26:38;;;;;;;64.35;20.00;;;25.40;55.90;;;;;;4967889;28;88239;-17
2021/08/26 07:29:04;;;;;;;73.53;22.35;;;25.40;55.70;;;;;;4968198;28;88128;-17
2021/08/26 07:31:30;;;;;;;83.10;27.45;;;25.50;55.60;;;;;;4969086;28;88052;-17
2021/08/26 07:33:55;;;;;;;69.20;23.52;;;25.40;55.50;;;;;;4969023;28;87887;-18
2021/08/26 07:36:21;;;;;;;67.85;22.83;;;25.50;55.60;;;;;;4968870;28;87995;-20
2021/08/26 07:38:46;;;;;;;69.05;21.40;;;25.40;55.50;;;;;;4968085;28;88373;-18
2021/08/26 07:41:12;;;;;;;50.70;18.27;;;25.50;55.60;;;;;;4968271;28;88396;-18
2021/08/26 07:43:37;;;;;;;64.88;19.05;;;25.50;55.60;;;;;;4969824;28;88015;-17
2021/08/26 07:46:04;;;;;;;51.88;17.23;;;25.50;55.80;;;;;;4969152;28;88535;-17
2021/08/26 07:48:30;;;;;;;52.42;17.92;;;25.50;55.80;;;;;;4969807;28;88206;-18
2021/08/26 07:51:02;;;;;;;45.40;16.67;;;25.50;55.80;;;;;;4969090;28;87849;-17
2021/08/26 07:53:28;;;;;;;51.42;16.52;;;25.50;55.80;;;;;;4969373;28;87618;-17
2021/08/26 07:55:53;;;;;;;52.17;16.65;;;25.50;55.80;;;;;;4969559;28;87331;-26
2021/08/26 07:58:19;;;;;;;57.45;16.20;;;25.60;55.90;;;;;;4968064;28;88310;-17
2021/08/26 08:00:45;;;;;;;45.22;16.23;;;25.60;55.90;;;;;;4968165;28;87799;-17
2021/08/26 08:03:10;;;;;;;47.10;15.98;;;25.60;55.90;;;;;;4968637;28;89048;-19
2021/08/26 08:05:36;;;;;;;48.33;16.48;;;25.60;55.90;;;;;;4969089;28;87619;-17
2021/08/26 08:08:01;;;;;;;50.13;16.50;;;25.60;55.90;;;;;;4968951;28;89822;-17
2021/08/26 08:10:27;;;;;;;45.67;15.90;;;25.60;56.00;;;;;;4967933;28;88374;-17
2021/08/26 08:12:53;;;;;;;49.30;15.82;;;25.60;56.00;;;;;;4968923;28;88032;-18
2021/08/26 08:15:18;;;;;;;51.05;16.92;;;25.70;56.00;;;;;;4968999;28;87444;-18
2021/08/26 08:17:44;;;;;;;47.08;15.35;;;25.60;56.10;;;;;;4971759;28;88383;-17
2021/08/26 08:20:10;;;;;;;39.78;15.32;;;25.70;56.10;;;;;;4972241;28;87431;-18
2021/08/26 08:22:37;;;;;;;34.05;13.57;;;25.70;56.10;;;;;;4971800;28;87764;-18
2021/08/26 08:25:05;;;;;;;43.42;13.98;;;25.70;55.90;;;;;;4971280;28;87727;-16
2021/08/26 08:27:30;;;;;;;36.67;10.77;;;25.70;55.80;;;;;;4970644;28;88640;-17
2021/08/26 08:29:56;;;;;;;42.72;12.30;;;25.70;55.60;;;;;;4970629;28;88042;-17
2021/08/26 08:32:22;;;;;;;35.40;10.55;;;25.70;55.50;;;;;;4970908;28;87670;-17
2021/08/26 08:34:47;;;;;;;34.08;11.60;;;25.70;55.80;;;;;;4970832;28;88168;-18
2021/08/26 08:37:13;;;;;;;35.08;11.77;;;25.70;56.00;;;;;;4970293;28;90085;-17
2021/08/26 08:39:38;;;;;;;37.83;11.70;;;25.70;56.00;;;;;;4970689;28;87889;-18
2021/08/26 08:42:04;;;;;;;37.17;10.23;;;25.70;55.90;;;;;;4971362;28;88545;-17
2021/08/26 08:44:30;;;;;;;38.08;11.07;;;25.70;55.90;;;;;;4970906;28;87394;-17
2021/08/26 08:46:58;;;;;;;23.92;9.00;;;25.80;56.00;;;;;;4970018;28;88257;-18
2021/08/26 08:49:24;;;;;;;36.83;10.40;;;25.80;56.00;;;;;;4972360;28;87424;-16
2021/08/26 08:51:51;;;;;;;33.67;9.30;;;25.80;56.00;;;;;;4971747;28;89003;-18
2021/08/26 08:54:17;;;;;;;28.60;8.85;;;25.80;56.10;;;;;;4972193;28;87975;-17
2021/08/26 08:56:44;;;;;;;32.70;9.65;;;25.80;56.20;;;;;;4972064;28;87841;-16
2021/08/26 08:59:09;;;;;;;27.77;8.43;;;25.80;56.90;;;;;;4971566;28;87951;-17
2021/08/26 09:01:35;;;;;;;22.92;8.88;;;25.80;56.50;;;;;;4972042;28;87153;-16
2021/08/26 09:04:01;;;;;;;27.00;7.78;;;25.80;56.60;;;;;;4971733;28;87796;-17
2021/08/26 09:06:40;;;;;;;21.52;7.85;;;25.90;56.70;;;;;;4970759;28;88270;-17
2021/08/26 09:09:07;;;;;;;22.15;7.65;;;25.90;56.80;;;;;;4971475;28;87275;-18
2021/08/26 09:11:33;;;;;;;24.13;8.52;;;25.90;57.00;;;;;;4972098;28;88177;-16
2021/08/26 09:14:11;;;;;;;21.23;7.85;;;25.90;57.20;;;;;;4971666;28;87582;-16
2021/08/26 09:16:40;;;;;;;27.40;8.60;;;26.00;57.30;;;;;;4971287;28;92398;-17
2021/08/26 09:19:16;;;;;;;24.23;7.35;;;26.00;57.50;;;;;;4972028;28;90075;-17
2021/08/26 09:21:42;;;;;;;21.23;7.55;;;26.10;57.70;;;;;;4972181;28;88113;-18
2021/08/26 09:24:07;;;;;;;19.88;6.50;;;26.10;57.90;;;;;;4971478;28;88296;-17
2021/08/26 09:26:33;;;;;;;22.60;7.07;;;26.00;58.10;;;;;;4970991;28;87598;-18
2021/08/26 09:29:01;;;;;;;25.25;7.82;;;26.10;58.40;;;;;;4971405;28;87876;-17
2021/08/26 09:31:28;;;;;;;21.00;6.93;;;26.10;58.70;;;;;;4970847;28;87560;-17
2021/08/26 09:34:02;;;;;;;31.23;7.60;;;26.10;58.70;;;;;;4966570;28;87379;-17
2021/08/26 09:36:35;;;;;;;19.63;6.65;;;26.10;58.90;;;;;;4969742;28;87592;-16
2021/08/26 09:39:03;;;;;;;;;;;26.10;58.90;;;;;;4971163;28;87576;-18
2021/08/26 09:41:40;;;;;;;17.83;6.65;;;26.10;58.80;;;;;;4972162;28;88408;-17
2021/08/26 09:44:08;;;;;;;28.33;6.85;;;26.10;58.50;;;;;;4971352;28;87092;-16
2021/08/26 09:46:36;;;;;;;22.88;4.90;;;26.20;58.50;;;;;;4970797;28;89092;-16
2021/08/26 09:49:08;;;;;;;19.67;3.95;;;26.10;56.60;;;;;;4971110;28;87905;-17
2021/08/26 09:51:34;;;;;;;16.30;4.43;;;26.10;55.30;;;;;;4970471;28;88073;-17
2021/08/26 09:54:00;;;;;;;18.92;3.78;;;26.10;55.30;;;;;;4970454;28;87348;-16
2021/08/26 09:56:40;;;;;;;19.90;3.80;;;26.10;55.00;;;;;;4967829;28;88602;-17
2021/08/26 09:59:06;;;;;;;12.82;4.10;;;26.10;55.50;;;;;;4970027;28;87530;-18
2021/08/26 10:01:36;;;;;;;12.45;3.92;;;26.10;55.60;;;;;;4968474;28;87758;-17
2021/08/26 10:04:02;;;;;;;17.30;3.88;;;26.10;55.70;;;;;;4969309;28;88029;-17
2021/08/26 10:06:28;;;;;;;15.85;4.15;;;26.10;56.00;;;;;;4969840;28;90986;-17
2021/08/26 10:08:54;;;;;;;19.30;4.25;;;26.10;55.90;;;;;;4970424;28;88195;-17
2021/08/26 10:11:21;;;;;;;15.65;3.80;;;26.10;56.00;;;;;;4970416;28;88098;-17
2021/08/26 10:13:48;;;;;;;8.82;2.55;;;26.10;56.10;;;;;;4970475;28;88237;-17
2021/08/26 10:16:14;;;;;;;17.48;3.78;;;26.10;55.50;;;;;;4970506;28;88045;-16
2021/08/26 10:18:40;;;;;;;13.82;3.50;;;26.10;55.80;;;;;;4965633;28;88288;-17
2021/08/26 10:21:08;;;;;;;17.15;3.38;;;26.10;55.90;;;;;;4970413;28;88024;-17
2021/08/26 10:23:37;;;;;;;17.50;4.38;;;26.10;56.40;;;;;;4969582;28;87392;-17
2021/08/26 10:26:05;;;;;;;14.55;3.88;;;26.10;55.30;;;;;;4970316;28;87922;-17
2021/08/26 10:28:39;;;;;;;14.50;3.25;;;26.10;55.60;;;;;;4970373;28;88568;-17
2021/08/26 10:31:51;;;;;;;13.35;3.05;;;26.20;55.30;;;;;;4968702;28;89272;-17
2021/08/26 10:34:23;;;;;;;6.05;2.10;;;26.20;54.40;;;;;;4926415;28;87909;-17
2021/08/26 10:36:55;;;;;;;9.90;2.83;;;26.20;53.70;;;;;;4928141;28;88331;-18
2021/08/26 10:39:43;;;;;;;7.40;1.88;;;26.20;53.80;;;;;;4950505;28;88020;-18
2021/08/26 10:42:29;;;;;;;9.27;2.10;;;26.20;53.60;;;;;;4969790;28;87826;-17
2021/08/26 10:45:07;;;;;;;9.35;2.05;;;26.20;53.90;;;;;;4961852;28;88232;-16
2021/08/26 10:47:56;;;;;;;8.23;2.38;;;26.30;54.20;;;;;;4969466;28;87896;-17
2021/08/26 10:50:24;;;;;;;9.00;2.08;;;26.20;54.00;;;;;;4964068;28;91114;-17
2021/08/26 10:52:57;;;;;;;12.82;2.55;;;26.30;54.10;;;;;;4970193;28;87946;-16
2021/08/26 10:55:33;;;;;;;;;;;26.20;53.90;;;;;;4970128;28;87232;-17
2021/08/26 10:58:17;;;;;;;9.50;2.30;;;26.20;53.80;;;;;;4971214;28;89087;-17
2021/08/26 11:00:45;;;;;;;7.03;2.00;;;26.20;54.00;;;;;;4969889;28;87637;-17
2021/08/26 11:03:31;;;;;;;9.13;2.45;;;26.20;54.10;;;;;;4969671;28;88684;-18
2021/08/26 11:05:56;;;;;;;9.95;2.50;;;26.20;54.10;;;;;;4968106;28;90191;-16
2021/08/26 11:08:31;;;;;;;9.98;2.20;;;26.30;54.10;;;;;;4969991;28;87700;-16
2021/08/26 11:11:00;;;;;;;15.48;1.80;;;26.20;53.90;;;;;;4969246;28;87257;-17
2021/08/26 11:13:28;;;;;;;7.85;1.80;;;26.20;53.80;;;;;;4967183;28;87570;-17
2021/08/26 11:15:54;;;;;;;6.32;1.88;;;26.20;53.80;;;;;;4968521;28;87561;-17
2021/08/26 11:18:27;;;;;;;9.43;2.30;;;26.20;53.60;;;;;;4967930;28;88675;-16
2021/08/26 11:20:53;;;;;;;5.20;1.60;;;26.20;53.50;;;;;;4967779;28;87378;-16
2021/08/26 11:23:19;;;;;;;6.13;1.95;;;26.10;53.80;;;;;;4967692;28;88885;-17
2021/08/26 11:25:44;;;;;;;7.32;1.80;;;26.20;54.00;;;;;;4968728;28;87547;-17
2021/08/26 11:28:30;;;;;;;7.72;1.88;;;26.20;53.90;;;;;;4969268;28;89115;-20
2021/08/26 11:31:16;;;;;;;8.85;1.73;;;26.20;54.00;;;;;;4966815;28;87974;-18
2021/08/26 11:33:41;;;;;;;9.07;1.65;;;26.30;54.00;;;;;;4969031;28;87823;-17
2021/08/26 11:36:15;;;;;;;6.32;1.67;;;26.30;54.10;;;;;;4967813;28;88729;-17
2021/08/26 11:38:49;;;;;;;5.70;1.88;;;26.30;54.10;;;;;;4969610;28;88416;-17
2021/08/26 11:41:15;;;;;;;6.13;1.70;;;26.30;54.10;;;;;;4968261;28;87944;-17
2021/08/26 11:43:44;;;;;;;8.32;2.03;;;26.30;54.20;;;;;;4969447;28;87929;-17
2021/08/26 11:46:14;;;;;;;6.50;2.15;;;26.40;54.20;;;;;;4969049;28;88138;-17
2021/08/26 11:48:51;;;;;;;9.70;2.00;;;26.30;54.20;;;;;;4969081;28;89122;-17
2021/08/26 11:51:22;;;;;;;9.15;2.00;;;26.30;54.30;;;;;;4975679;28;88441;-16
2021/08/26 11:53:48;;;;;;;5.82;1.90;;;26.30;54.40;;;;;;4975965;28;88224;-17
2021/08/26 11:56:14;;;;;;;5.97;1.67;;;26.30;54.30;;;;;;4976267;28;87758;-17
2021/08/26 11:58:39;;;;;;;4.85;1.83;;;26.30;54.10;;;;;;4976065;28;88342;-19
2021/08/26 12:01:05;;;;;;;10.00;1.88;;;26.30;54.00;;;;;;4974941;28;87941;-16
2021/08/26 12:03:30;;;;;;;9.40;2.15;;;26.30;53.90;;;;;;4973523;28;87727;-17
2021/08/26 12:05:56;;;;;;;6.28;1.60;;;26.30;54.10;;;;;;4972668;28;89312;-17
2021/08/26 12:08:22;;;;;;;5.78;1.42;;;26.30;54.10;;;;;;4974110;28;88293;-18
2021/08/26 12:10:48;;;;;;;9.50;1.90;;;26.30;54.10;;;;;;4974315;28;87734;-17
2021/08/26 12:13:21;;;;;;;6.35;1.35;;;26.30;54.20;;;;;;4973745;28;88179;-19
2021/08/26 12:15:54;;;;;;;6.30;1.63;;;26.30;54.40;;;;;;4974172;28;87577;-17
2021/08/26 12:18:25;;;;;;;4.95;1.40;;;26.20;54.40;;;;;;4975469;28;87579;-17
2021/08/26 12:20:55;;;;;;;4.50;1.48;;;26.30;54.40;;;;;;4974880;28;87183;-17
2021/08/26 12:23:27;;;;;;;6.63;1.52;;;26.20;54.30;;;;;;4973435;28;87958;-17
2021/08/26 12:26:17;;;;;;;7.38;2.20;;;26.30;54.50;;;;;;4971584;28;89155;-17
2021/08/26 12:28:47;;;;;;;9.85;1.77;;;26.30;54.50;;;;;;4973849;28;88585;-17
2021/08/26 12:31:19;;;;;;;10.55;1.63;;;26.30;54.40;;;;;;4971635;28;89891;-17
2021/08/26 12:34:08;;;;;;;12.68;1.83;;;26.40;54.50;;;;;;4974390;28;87951;-17
2021/08/26 12:36:42;;;;;;;9.25;1.42;;;26.30;54.80;;;;;;4973808;28;87712;-17
2021/08/26 12:40:01;;;;;;;5.68;2.17;;;26.30;54.60;;;;;;4961580;28;89587;-17
2021/08/26 12:42:36;;;;;;;10.75;2.08;;;26.40;54.80;;;;;;4959942;28;90370;-18
2021/08/26 12:45:46;;;;;;;11.63;2.17;;;26.40;54.70;;;;;;4960211;28;88767;-17
2021/08/26 12:48:31;;;;;;;10.25;1.50;;;26.40;54.70;;;;;;4958816;28;87569;-18
2021/08/26 12:51:08;;;;;;;8.30;1.65;;;26.40;54.90;;;;;;4962623;28;88894;-18
2021/08/26 12:53:39;;;;;;;9.38;1.52;;;26.40;54.70;;;;;;4958367;28;87939;-17